sensor_id;sensor_type;location;lat;lon;timestamp;pressure;altitude;pressure_sealevel;temperature;humidity
51289;BME280;37372;52.294;5.152;2023-02-04T00:00:55;103323.19;;;6.97;100.00
51289;BME280;37372;52.294;5.152;2023-02-04T00:03:20;103320.41;;;6.88;100.00
51289;BME280;37372;52.294;5.152;2023-02-04T00:05:45;103330.44;;;6.98;100.00
51289;BME280;37372;52.294;5.152;2023-02-04T00:08:11;103329.63;;;6.98;100.00
51289;BME280;37372;52.294;5.152;2023-02-04T00:10:36;103328.66;;;6.85;100.00
51289;BME280;37372;52.294;5.152;2023-02-04T00:13:02;103328.97;;;6.74;100.00
51289;BME280;37372;52.294;5.152;2023-02-04T00:15:28;103336.50;;;6.65;100.00
51289;BME280;37372;52.294;5.152;2023-02-04T00:17:54;103337.84;;;6.59;100.00
51289;BME280;37372;52.294;5.152;2023-02-04T00:20:19;103342.72;;;6.53;100.00
51289;BME280;37372;52.294;5.152;2023-02-04T00:22:44;103345.50;;;6.53;100.00
51289;BME280;37372;52.294;5.152;2023-02-04T00:25:10;103338.31;;;6.44;100.00
51289;BME280;37372;52.294;5.152;2023-02-04T00:27:36;103345.84;;;6.43;100.00
51289;BME280;37372;52.294;5.152;2023-02-04T00:30:02;103345.38;;;6.41;100.00
51289;BME280;37372;52.294;5.152;2023-02-04T00:32:28;103345.84;;;6.35;100.00
51289;BME280;37372;52.294;5.152;2023-02-04T00:34:53;103347.97;;;6.29;100.00
51289;BME280;37372;52.294;5.152;2023-02-04T00:37:18;103363.69;;;6.25;100.00
51289;BME280;37372;52.294;5.152;2023-02-04T00:39:44;103362.03;;;6.24;100.00
51289;BME280;37372;52.294;5.152;2023-02-04T00:42:09;103349.59;;;6.30;100.00
51289;BME280;37372;52.294;5.152;2023-02-04T00:44:37;103359.47;;;6.36;100.00
51289;BME280;37372;52.294;5.152;2023-02-04T00:47:03;103358.97;;;6.43;100.00
51289;BME280;37372;52.294;5.152;2023-02-04T00:49:29;103358.31;;;6.37;100.00
51289;BME280;37372;52.294;5.152;2023-02-04T00:51:54;103361.09;;;6.37;100.00
51289;BME280;37372;52.294;5.152;2023-02-04T00:54:20;103374.19;;;6.28;100.00
51289;BME280;37372;52.294;5.152;2023-02-04T00:56:45;103372.41;;;6.32;100.00
51289;BME280;37372;52.294;5.152;2023-02-04T00:59:11;103375.34;;;6.27;100.00
51289;BME280;37372;52.294;5.152;2023-02-04T01:01:36;103380.91;;;6.27;100.00
51289;BME280;37372;52.294;5.152;2023-02-04T01:04:02;103382.88;;;6.26;100.00
51289;BME280;37372;52.294;5.152;2023-02-04T01:06:28;103377.16;;;6.32;100.00
51289;BME280;37372;52.294;5.152;2023-02-04T01:08:53;103379.78;;;6.37;100.00
51289;BME280;37372;52.294;5.152;2023-02-04T01:11:19;103388.16;;;6.37;100.00
51289;BME280;37372;52.294;5.152;2023-02-04T01:13:44;103393.06;;;6.40;100.00
51289;BME280;37372;52.294;5.152;2023-02-04T01:16:11;103392.91;;;6.36;100.00
51289;BME280;37372;52.294;5.152;2023-02-04T01:18:36;103391.25;;;6.35;100.00
51289;BME280;37372;52.294;5.152;2023-02-04T01:21:02;103398.50;;;6.36;100.00
51289;BME280;37372;52.294;5.152;2023-02-04T01:23:27;103391.91;;;6.32;100.00
51289;BME280;37372;52.294;5.152;2023-02-04T01:25:53;103399.13;;;6.33;100.00
51289;BME280;37372;52.294;5.152;2023-02-04T01:28:18;103396.81;;;6.35;100.00
51289;BME280;37372;52.294;5.152;2023-02-04T01:30:43;103402.41;;;6.35;100.00
51289;BME280;37372;52.294;5.152;2023-02-04T01:33:09;103410.25;;;6.33;100.00
51289;BME280;37372;52.294;5.152;2023-02-04T01:35:34;103411.56;;;6.27;100.00
51289;BME280;37372;52.294;5.152;2023-02-04T01:38:00;103409.06;;;6.17;100.00
51289;BME280;37372;52.294;5.152;2023-02-04T01:40:25;103414.00;;;6.20;100.00
51289;BME280;37372;52.294;5.152;2023-02-04T01:42:51;103421.84;;;6.18;100.00
51289;BME280;37372;52.294;5.152;2023-02-04T01:45:17;103423.66;;;6.14;100.00
51289;BME280;37372;52.294;5.152;2023-02-04T01:47:43;103426.75;;;6.12;100.00
51289;BME280;37372;52.294;5.152;2023-02-04T01:50:12;103421.09;;;6.26;100.00
51289;BME280;37372;52.294;5.152;2023-02-04T01:52:39;103426.94;;;6.16;100.00
51289;BME280;37372;52.294;5.152;2023-02-04T01:55:15;103438.22;;;6.11;100.00
51289;BME280;37372;52.294;5.152;2023-02-04T01:57:41;103439.38;;;6.09;100.00
51289;BME280;37372;52.294;5.152;2023-02-04T02:00:15;103446.56;;;6.11;100.00
51289;BME280;37372;52.294;5.152;2023-02-04T02:02:45;103439.88;;;6.12;100.00
51289;BME280;37372;52.294;5.152;2023-02-04T02:05:15;103441.66;;;6.07;100.00
51289;BME280;37372;52.294;5.152;2023-02-04T02:07:42;103436.28;;;6.11;100.00
51289;BME280;37372;52.294;5.152;2023-02-04T02:10:09;103441.00;;;6.11;100.00
51289;BME280;37372;52.294;5.152;2023-02-04T02:12:36;103447.28;;;6.16;100.00
51289;BME280;37372;52.294;5.152;2023-02-04T02:15:02;103441.00;;;6.11;100.00
51289;BME280;37372;52.294;5.152;2023-02-04T02:17:27;103441.16;;;6.05;100.00
51289;BME280;37372;52.294;5.152;2023-02-04T02:19:53;103451.31;;;6.01;100.00
51289;BME280;37372;52.294;5.152;2023-02-04T02:22:28;103455.22;;;6.00;100.00
51289;BME280;37372;52.294;5.152;2023-02-04T02:24:57;103456.38;;;5.99;100.00
51289;BME280;37372;52.294;5.152;2023-02-04T02:27:22;103459.81;;;5.96;100.00
51289;BME280;37372;52.294;5.152;2023-02-04T02:29:48;103455.06;;;5.97;100.00
51289;BME280;37372;52.294;5.152;2023-02-04T02:32:14;103450.94;;;5.94;100.00
51289;BME280;37372;52.294;5.152;2023-02-04T02:34:40;103453.72;;;5.94;100.00
51289;BME280;37372;52.294;5.152;2023-02-04T02:37:07;103456.63;;;5.89;100.00
51289;BME280;37372;52.294;5.152;2023-02-04T02:39:37;103457.44;;;5.90;100.00
51289;BME280;37372;52.294;5.152;2023-02-04T02:42:04;103454.84;;;5.93;100.00
51289;BME280;37372;52.294;5.152;2023-02-04T02:44:31;103454.22;;;5.96;100.00
51289;BME280;37372;52.294;5.152;2023-02-04T02:46:57;103462.19;;;5.89;100.00
51289;BME280;37372;52.294;5.152;2023-02-04T02:49:23;103463.34;;;5.88;100.00
51289;BME280;37372;52.294;5.152;2023-02-04T02:51:49;103458.38;;;5.85;100.00
51289;BME280;37372;52.294;5.152;2023-02-04T02:54:41;103459.91;;;5.91;100.00
51289;BME280;37372;52.294;5.152;2023-02-04T02:57:29;103460.88;;;5.86;100.00
51289;BME280;37372;52.294;5.152;2023-02-04T02:59:55;103468.28;;;5.91;100.00
51289;BME280;37372;52.294;5.152;2023-02-04T03:02:22;103472.31;;;5.85;100.00
51289;BME280;37372;52.294;5.152;2023-02-04T03:04:51;103465.53;;;5.77;100.00
51289;BME280;37372;52.294;5.152;2023-02-04T03:07:19;103465.53;;;5.77;100.00
51289;BME280;37372;52.294;5.152;2023-02-04T03:09:46;103466.53;;;5.73;100.00
51289;BME280;37372;52.294;5.152;2023-02-04T03:12:12;103465.69;;;5.72;100.00
51289;BME280;37372;52.294;5.152;2023-02-04T03:14:37;103462.91;;;5.72;100.00
51289;BME280;37372;52.294;5.152;2023-02-04T03:17:04;103462.09;;;5.72;100.00
51289;BME280;37372;52.294;5.152;2023-02-04T03:19:32;103459.66;;;5.79;100.00
51289;BME280;37372;52.294;5.152;2023-02-04T03:21:58;103456.88;;;5.79;100.00
51289;BME280;37372;52.294;5.152;2023-02-04T03:24:25;103445.88;;;5.74;100.00
51289;BME280;37372;52.294;5.152;2023-02-04T03:26:51;103452.94;;;5.80;100.00
51289;BME280;37372;52.294;5.152;2023-02-04T03:29:17;103457.03;;;5.74;100.00
51289;BME280;37372;52.294;5.152;2023-02-04T03:31:42;103450.13;;;5.71;100.00
51289;BME280;37372;52.294;5.152;2023-02-04T03:34:07;103448.78;;;5.69;100.00
51289;BME280;37372;52.294;5.152;2023-02-04T03:36:33;103455.69;;;5.71;100.00
51289;BME280;37372;52.294;5.152;2023-02-04T03:38:58;103460.44;;;5.71;100.00
51289;BME280;37372;52.294;5.152;2023-02-04T03:41:24;103461.69;;;5.64;100.00
51289;BME280;37372;52.294;5.152;2023-02-04T03:43:49;103460.16;;;5.50;100.00
51289;BME280;37372;52.294;5.152;2023-02-04T03:46:14;103463.88;;;5.45;100.00
51289;BME280;37372;52.294;5.152;2023-02-04T03:48:40;103465.75;;;5.36;100.00
51289;BME280;37372;52.294;5.152;2023-02-04T03:51:05;103476.13;;;5.21;100.00
51289;BME280;37372;52.294;5.152;2023-02-04T03:53:31;103471.41;;;5.08;100.00
51289;BME280;37372;52.294;5.152;2023-02-04T03:55:56;103474.72;;;5.10;100.00
51289;BME280;37372;52.294;5.152;2023-02-04T03:58:21;103479.88;;;5.03;100.00
51289;BME280;37372;52.294;5.152;2023-02-04T04:00:47;103483.00;;;5.02;100.00
51289;BME280;37372;52.294;5.152;2023-02-04T04:03:12;103474.94;;;5.00;100.00
51289;BME280;37372;52.294;5.152;2023-02-04T04:05:38;103474.94;;;5.00;100.00
51289;BME280;37372;52.294;5.152;2023-02-04T04:08:03;103478.03;;;4.98;100.00
51289;BME280;37372;52.294;5.152;2023-02-04T04:10:29;103479.69;;;4.99;100.00
51289;BME280;37372;52.294;5.152;2023-02-04T04:12:54;103476.69;;;4.96;100.00
51289;BME280;37372;52.294;5.152;2023-02-04T04:15:20;103481.56;;;4.90;100.00
51289;BME280;37372;52.294;5.152;2023-02-04T04:17:45;103488.91;;;4.86;100.00
51289;BME280;37372;52.294;5.152;2023-02-04T04:20:11;103496.41;;;4.86;100.00
51289;BME280;37372;52.294;5.152;2023-02-04T04:22:37;103495.28;;;4.87;100.00
51289;BME280;37372;52.294;5.152;2023-02-04T04:25:03;103499.69;;;4.88;100.00
51289;BME280;37372;52.294;5.152;2023-02-04T04:27:28;103491.88;;;4.90;100.00
51289;BME280;37372;52.294;5.152;2023-02-04T04:29:54;103496.81;;;4.93;100.00
51289;BME280;37372;52.294;5.152;2023-02-04T04:32:20;103495.06;;;4.97;100.00
51289;BME280;37372;52.294;5.152;2023-02-04T04:34:45;103501.75;;;4.96;100.00
51289;BME280;37372;52.294;5.152;2023-02-04T04:37:11;103501.13;;;4.99;100.00
51289;BME280;37372;52.294;5.152;2023-02-04T04:39:36;103489.38;;;5.02;100.00
51289;BME280;37372;52.294;5.152;2023-02-04T04:42:02;103495.94;;;5.06;100.00
51289;BME280;37372;52.294;5.152;2023-02-04T04:44:27;103496.97;;;5.10;100.00
51289;BME280;37372;52.294;5.152;2023-02-04T04:46:55;103501.91;;;5.13;100.00
51289;BME280;37372;52.294;5.152;2023-02-04T04:49:21;103498.00;;;5.14;100.00
51289;BME280;37372;52.294;5.152;2023-02-04T04:51:46;103496.84;;;5.15;100.00
51289;BME280;37372;52.294;5.152;2023-02-04T04:54:11;103492.94;;;5.16;100.00
51289;BME280;37372;52.294;5.152;2023-02-04T04:56:37;103495.09;;;5.19;100.00
51289;BME280;37372;52.294;5.152;2023-02-04T04:59:02;103496.75;;;5.20;100.00
51289;BME280;37372;52.294;5.152;2023-02-04T05:01:28;103492.22;;;5.25;100.00
51289;BME280;37372;52.294;5.152;2023-02-04T05:03:53;103498.28;;;5.27;100.00
51289;BME280;37372;52.294;5.152;2023-02-04T05:06:18;103495.69;;;5.30;100.00
51289;BME280;37372;52.294;5.152;2023-02-04T05:08:50;103498.78;;;5.29;100.00
51289;BME280;37372;52.294;5.152;2023-02-04T05:11:15;103496.50;;;5.31;100.00
51289;BME280;37372;52.294;5.152;2023-02-04T05:13:41;103499.16;;;5.36;100.00
51289;BME280;37372;52.294;5.152;2023-02-04T05:16:06;103498.03;;;5.37;100.00
51289;BME280;37372;52.294;5.152;2023-02-04T05:18:31;103500.19;;;5.40;100.00
51289;BME280;37372;52.294;5.152;2023-02-04T05:20:57;103503.50;;;5.42;100.00
51289;BME280;37372;52.294;5.152;2023-02-04T05:23:22;103497.94;;;5.42;100.00
51289;BME280;37372;52.294;5.152;2023-02-04T05:25:48;103497.59;;;5.43;100.00
51289;BME280;37372;52.294;5.152;2023-02-04T05:28:13;103494.81;;;5.43;100.00
51289;BME280;37372;52.294;5.152;2023-02-04T05:30:38;103502.84;;;5.45;100.00
51289;BME280;37372;52.294;5.152;2023-02-04T05:33:04;103502.84;;;5.45;100.00
51289;BME280;37372;52.294;5.152;2023-02-04T05:35:29;103502.22;;;5.48;100.00
51289;BME280;37372;52.294;5.152;2023-02-04T05:37:54;103498.22;;;5.40;100.00
51289;BME280;37372;52.294;5.152;2023-02-04T05:40:20;103502.84;;;5.45;100.00
51289;BME280;37372;52.294;5.152;2023-02-04T05:42:45;103506.84;;;5.53;100.00
51289;BME280;37372;52.294;5.152;2023-02-04T05:45:13;103507.97;;;5.52;100.00
51289;BME280;37372;52.294;5.152;2023-02-04T05:47:39;103512.94;;;5.55;100.00
51289;BME280;37372;52.294;5.152;2023-02-04T05:50:05;103513.75;;;5.55;100.00
51289;BME280;37372;52.294;5.152;2023-02-04T05:52:30;103524.88;;;5.55;100.00
51289;BME280;37372;52.294;5.152;2023-02-04T05:54:56;103527.16;;;5.53;100.00
51289;BME280;37372;52.294;5.152;2023-02-04T05:57:21;103527.97;;;5.54;100.00
51289;BME280;37372;52.294;5.152;2023-02-04T05:59:46;103528.78;;;5.54;100.00
51289;BME280;37372;52.294;5.152;2023-02-04T06:02:12;103533.75;;;5.57;100.00
51289;BME280;37372;52.294;5.152;2023-02-04T06:04:37;103532.09;;;5.56;100.00
51289;BME280;37372;52.294;5.152;2023-02-04T06:07:02;103546.63;;;5.53;100.00
51289;BME280;37372;52.294;5.152;2023-02-04T06:09:28;103550.38;;;5.49;100.00
51289;BME280;37372;52.294;5.152;2023-02-04T06:11:53;103548.22;;;5.46;100.00
51289;BME280;37372;52.294;5.152;2023-02-04T06:14:18;103552.16;;;5.44;100.00
51289;BME280;37372;52.294;5.152;2023-02-04T06:16:43;103558.13;;;5.38;100.00
51289;BME280;37372;52.294;5.152;2023-02-04T06:19:09;103558.13;;;5.38;100.00
51289;BME280;37372;52.294;5.152;2023-02-04T06:21:34;103565.97;;;5.36;100.00
51289;BME280;37372;52.294;5.152;2023-02-04T06:23:59;103563.63;;;5.29;100.00
51289;BME280;37372;52.294;5.152;2023-02-04T06:26:25;103571.25;;;5.23;100.00
51289;BME280;37372;52.294;5.152;2023-02-04T06:28:51;103572.41;;;5.22;100.00
51289;BME280;37372;52.294;5.152;2023-02-04T06:31:16;103579.72;;;5.18;100.00
51289;BME280;37372;52.294;5.152;2023-02-04T06:33:41;103581.50;;;5.14;100.00
51289;BME280;37372;52.294;5.152;2023-02-04T06:36:07;103576.53;;;5.11;100.00
51289;BME280;37372;52.294;5.152;2023-02-04T06:38:32;103589.94;;;5.09;100.00
51289;BME280;37372;52.294;5.152;2023-02-04T06:40:58;103593.84;;;5.08;100.00
51289;BME280;37372;52.294;5.152;2023-02-04T06:43:23;103598.88;;;5.06;100.00
51289;BME280;37372;52.294;5.152;2023-02-04T06:45:50;103600.03;;;5.05;100.00
51289;BME280;37372;52.294;5.152;2023-02-04T06:48:16;103595.09;;;5.02;100.00
51289;BME280;37372;52.294;5.152;2023-02-04T06:50:41;103604.56;;;5.01;100.00
51289;BME280;37372;52.294;5.152;2023-02-04T06:53:06;103606.94;;;4.94;100.00
51289;BME280;37372;52.294;5.152;2023-02-04T06:55:32;103606.44;;;4.92;100.00
51289;BME280;37372;52.294;5.152;2023-02-04T06:57:57;103606.44;;;4.92;100.00
51289;BME280;37372;52.294;5.152;2023-02-04T07:00:23;103613.63;;;4.93;100.00
51289;BME280;37372;52.294;5.152;2023-02-04T07:02:48;103612.00;;;4.92;100.00
51289;BME280;37372;52.294;5.152;2023-02-04T07:05:14;103627.03;;;4.91;100.00
51289;BME280;37372;52.294;5.152;2023-02-04T07:07:39;103621.47;;;4.91;100.00
51289;BME280;37372;52.294;5.152;2023-02-04T07:10:05;103619.19;;;4.93;100.00
51289;BME280;37372;52.294;5.152;2023-02-04T07:12:30;103623.13;;;4.92;100.00
51289;BME280;37372;52.294;5.152;2023-02-04T07:14:55;103634.66;;;4.99;100.00
51289;BME280;37372;52.294;5.152;2023-02-04T07:17:21;103624.88;;;5.02;100.00
51289;BME280;37372;52.294;5.152;2023-02-04T07:19:47;103629.09;;;4.99;100.00
51289;BME280;37372;52.294;5.152;2023-02-04T07:22:12;103645.56;;;4.95;100.00
51289;BME280;37372;52.294;5.152;2023-02-04T07:24:38;103636.94;;;4.97;100.00
51289;BME280;37372;52.294;5.152;2023-02-04T07:27:03;103644.13;;;4.98;100.00
51289;BME280;37372;52.294;5.152;2023-02-04T07:29:28;103647.44;;;5.00;100.00
51289;BME280;37372;52.294;5.152;2023-02-04T07:31:54;103639.59;;;5.02;100.00
51289;BME280;37372;52.294;5.152;2023-02-04T07:34:20;103647.34;;;5.05;100.00
51289;BME280;37372;52.294;5.152;2023-02-04T07:36:45;103645.59;;;5.09;100.00
51289;BME280;37372;52.294;5.152;2023-02-04T07:39:10;103648.66;;;5.08;100.00
51289;BME280;37372;52.294;5.152;2023-02-04T07:41:36;103661.13;;;5.10;100.00
51289;BME280;37372;52.294;5.152;2023-02-04T07:44:02;103652.16;;;5.13;100.00
51289;BME280;37372;52.294;5.152;2023-02-04T07:46:28;103660.41;;;5.18;100.00
51289;BME280;37372;52.294;5.152;2023-02-04T07:48:53;103651.38;;;5.27;100.00
51289;BME280;37372;52.294;5.152;2023-02-04T07:51:18;103655.16;;;5.31;100.00
51289;BME280;37372;52.294;5.152;2023-02-04T07:53:44;103663.41;;;5.36;100.00
51289;BME280;37372;52.294;5.152;2023-02-04T07:56:09;103668.78;;;5.32;100.00
51289;BME280;37372;52.294;5.152;2023-02-04T07:58:35;103670.09;;;5.35;100.00
51289;BME280;37372;52.294;5.152;2023-02-04T08:01:00;103670.00;;;5.40;100.00
51289;BME280;37372;52.294;5.152;2023-02-04T08:03:26;103673.50;;;5.46;100.00
51289;BME280;37372;52.294;5.152;2023-02-04T08:05:52;103680.41;;;5.48;100.00
51289;BME280;37372;52.294;5.152;2023-02-04T08:08:18;103689.28;;;5.50;100.00
51289;BME280;37372;52.294;5.152;2023-02-04T08:10:43;103684.34;;;5.47;100.00
51289;BME280;37372;52.294;5.152;2023-02-04T08:13:09;103685.34;;;5.51;100.00
51289;BME280;37372;52.294;5.152;2023-02-04T08:15:34;103695.25;;;5.57;100.00
51289;BME280;37372;52.294;5.152;2023-02-04T08:18:00;103691.50;;;5.62;100.00
51289;BME280;37372;52.294;5.152;2023-02-04T08:20:25;103693.59;;;5.70;100.00
51289;BME280;37372;52.294;5.152;2023-02-04T08:22:51;103697.06;;;5.76;100.00
51289;BME280;37372;52.294;5.152;2023-02-04T08:25:17;103700.97;;;5.75;100.00
51289;BME280;37372;52.294;5.152;2023-02-04T08:27:42;103702.00;;;5.79;100.00
51289;BME280;37372;52.294;5.152;2023-02-04T08:30:08;103708.63;;;5.83;100.00
51289;BME280;37372;52.294;5.152;2023-02-04T08:32:34;103714.81;;;5.94;100.00
51289;BME280;37372;52.294;5.152;2023-02-04T08:34:59;103714.34;;;6.00;100.00
51289;BME280;37372;52.294;5.152;2023-02-04T08:37:25;103717.03;;;6.05;100.00
51289;BME280;37372;52.294;5.152;2023-02-04T08:39:51;103719.91;;;6.14;100.00
51289;BME280;37372;52.294;5.152;2023-02-04T08:42:16;103722.41;;;6.16;100.00
51289;BME280;37372;52.294;5.152;2023-02-04T08:44:42;103715.53;;;6.22;100.00
51289;BME280;37372;52.294;5.152;2023-02-04T08:47:08;103717.56;;;6.30;100.00
51289;BME280;37372;52.294;5.152;2023-02-04T08:49:35;103723.53;;;6.37;100.00
51289;BME280;37372;52.294;5.152;2023-02-04T08:52:00;103718.66;;;6.43;100.00
51289;BME280;37372;52.294;5.152;2023-02-04T08:54:27;103718.34;;;6.44;100.00
51289;BME280;37372;52.294;5.152;2023-02-04T08:56:53;103724.31;;;6.51;100.00
51289;BME280;37372;52.294;5.152;2023-02-04T08:59:18;103723.16;;;6.52;100.00
51289;BME280;37372;52.294;5.152;2023-02-04T09:01:50;103727.91;;;6.52;100.00
51289;BME280;37372;52.294;5.152;2023-02-04T09:04:20;103722.38;;;6.61;100.00
51289;BME280;37372;52.294;5.152;2023-02-04T09:06:47;103724.53;;;6.64;100.00
51289;BME280;37372;52.294;5.152;2023-02-04T09:09:13;103727.19;;;6.69;100.00
51289;BME280;37372;52.294;5.152;2023-02-04T09:11:39;103720.50;;;6.70;100.00
51289;BME280;37372;52.294;5.152;2023-02-04T09:14:05;103714.56;;;6.71;100.00
51289;BME280;37372;52.294;5.152;2023-02-04T09:16:31;103726.88;;;6.70;100.00
51289;BME280;37372;52.294;5.152;2023-02-04T09:18:56;103726.75;;;6.76;100.00
51289;BME280;37372;52.294;5.152;2023-02-04T09:21:26;103741.59;;;6.85;100.00
51289;BME280;37372;52.294;5.152;2023-02-04T09:23:52;103738.59;;;6.81;100.00
51289;BME280;37372;52.294;5.152;2023-02-04T09:26:17;103737.38;;;6.96;100.00
51289;BME280;37372;52.294;5.152;2023-02-04T09:28:43;103738.69;;;6.99;100.00
51289;BME280;37372;52.294;5.152;2023-02-04T09:31:08;103741.09;;;7.14;100.00
51289;BME280;37372;52.294;5.152;2023-02-04T09:33:35;103729.75;;;7.10;100.00
51289;BME280;37372;52.294;5.152;2023-02-04T09:36:01;103729.91;;;7.14;100.00
51289;BME280;37372;52.294;5.152;2023-02-04T09:38:26;103735.22;;;7.24;100.00
51289;BME280;37372;52.294;5.152;2023-02-04T09:40:54;103746.84;;;7.17;100.00
51289;BME280;37372;52.294;5.152;2023-02-04T09:43:31;103746.66;;;7.14;100.00
51289;BME280;37372;52.294;5.152;2023-02-04T09:45:58;103743.22;;;7.17;100.00
51289;BME280;37372;52.294;5.152;2023-02-04T09:48:24;103756.19;;;7.13;100.00
51289;BME280;37372;52.294;5.152;2023-02-04T09:50:51;103751.25;;;7.10;100.00
51289;BME280;37372;52.294;5.152;2023-02-04T09:53:19;103750.97;;;7.20;100.00
51289;BME280;37372;52.294;5.152;2023-02-04T09:55:47;103758.34;;;7.56;100.00
51289;BME280;37372;52.294;5.152;2023-02-04T09:58:21;103765.22;;;7.50;100.00
51289;BME280;37372;52.294;5.152;2023-02-04T10:01:00;103769.16;;;7.49;100.00
51289;BME280;37372;52.294;5.152;2023-02-04T10:03:30;103767.50;;;7.48;100.00
51289;BME280;37372;52.294;5.152;2023-02-04T10:05:55;103771.81;;;7.54;100.00
51289;BME280;37372;52.294;5.152;2023-02-04T10:08:28;103775.78;;;7.70;100.00
51289;BME280;37372;52.294;5.152;2023-02-04T10:10:54;103776.59;;;7.62;100.00
51289;BME280;37372;52.294;5.152;2023-02-04T10:13:23;103776.22;;;7.46;100.00
51289;BME280;37372;52.294;5.152;2023-02-04T10:15:51;103775.56;;;7.49;100.00
51289;BME280;37372;52.294;5.152;2023-02-04T10:18:25;103779.53;;;7.57;100.00
51289;BME280;37372;52.294;5.152;2023-02-04T10:21:32;103780.25;;;7.71;100.00
51289;BME280;37372;52.294;5.152;2023-02-04T10:23:59;103778.31;;;7.89;100.00
51289;BME280;37372;52.294;5.152;2023-02-04T10:26:27;103784.56;;;7.95;100.00
51289;BME280;37372;52.294;5.152;2023-02-04T10:29:05;103792.16;;;7.94;100.00
51289;BME280;37372;52.294;5.152;2023-02-04T10:31:35;103782.25;;;7.88;100.00
51289;BME280;37372;52.294;5.152;2023-02-04T10:34:32;103779.44;;;7.79;100.00
51289;BME280;37372;52.294;5.152;2023-02-04T10:36:58;103777.97;;;7.91;100.00
51289;BME280;37372;52.294;5.152;2023-02-04T10:39:29;103783.22;;;7.75;100.00
51289;BME280;37372;52.294;5.152;2023-02-04T10:42:04;103791.44;;;7.80;100.00
51289;BME280;37372;52.294;5.152;2023-02-04T10:44:31;103792.25;;;7.72;100.00
51289;BME280;37372;52.294;5.152;2023-02-04T10:47:18;103779.47;;;7.88;100.00
51289;BME280;37372;52.294;5.152;2023-02-04T10:52:42;103786.41;;;8.08;100.00
51289;BME280;37372;52.294;5.152;2023-02-04T10:55:14;103785.44;;;8.04;100.00
51289;BME280;37372;52.294;5.152;2023-02-04T10:57:43;103788.69;;;8.06;100.00
51289;BME280;37372;52.294;5.152;2023-02-04T11:02:47;103792.84;;;8.17;100.00
51289;BME280;37372;52.294;5.152;2023-02-04T11:05:15;103791.69;;;8.36;100.00
51289;BME280;37372;52.294;5.152;2023-02-04T11:07:42;103792.72;;;8.40;100.00
51289;BME280;37372;52.294;5.152;2023-02-04T11:10:16;103787.28;;;8.43;100.00
51289;BME280;37372;52.294;5.152;2023-02-04T11:15:42;103776.91;;;8.44;100.00
51289;BME280;37372;52.294;5.152;2023-02-04T11:20:47;103780.38;;;8.41;100.00
51289;BME280;37372;52.294;5.152;2023-02-04T11:28:45;103782.97;;;8.20;100.00
51289;BME280;37372;52.294;5.152;2023-02-04T11:33:43;103789.88;;;8.31;100.00
51289;BME280;37372;52.294;5.152;2023-02-04T11:36:10;103787.75;;;8.37;100.00
51289;BME280;37372;52.294;5.152;2023-02-04T11:38:37;103789.22;;;8.34;100.00
51289;BME280;37372;52.294;5.152;2023-02-04T11:41:04;103788.25;;;8.30;100.00
51289;BME280;37372;52.294;5.152;2023-02-04T11:43:38;103789.09;;;8.65;100.00
51289;BME280;37372;52.294;5.152;2023-02-04T11:46:15;103781.19;;;8.67;100.00
51289;BME280;37372;52.294;5.152;2023-02-04T11:48:41;103786.28;;;8.83;100.00
51289;BME280;37372;52.294;5.152;2023-02-04T11:51:13;103779.03;;;8.82;100.00
51289;BME280;37372;52.294;5.152;2023-02-04T11:53:39;103778.84;;;8.96;100.00
51289;BME280;37372;52.294;5.152;2023-02-04T11:56:05;103778.19;;;8.90;100.00
51289;BME280;37372;52.294;5.152;2023-02-04T11:58:31;103775.56;;;8.85;100.00
51289;BME280;37372;52.294;5.152;2023-02-04T12:00:57;103786.59;;;8.90;100.00
51289;BME280;37372;52.294;5.152;2023-02-04T12:03:28;103780.66;;;8.91;100.00
51289;BME280;37372;52.294;5.152;2023-02-04T12:06:00;103776.19;;;8.99;100.00
51289;BME280;37372;52.294;5.152;2023-02-04T12:08:30;103789.09;;;8.83;100.00
51289;BME280;37372;52.294;5.152;2023-02-04T12:11:09;103792.00;;;8.95;100.00
51289;BME280;37372;52.294;5.152;2023-02-04T12:13:57;103780.66;;;8.91;100.00
51289;BME280;37372;52.294;5.152;2023-02-04T12:16:23;103793.56;;;8.75;100.00
51289;BME280;37372;52.294;5.152;2023-02-04T12:18:49;103793.03;;;8.64;100.00
51289;BME280;37372;52.294;5.152;2023-02-04T12:21:16;103784.31;;;8.66;100.00
51289;BME280;37372;52.294;5.152;2023-02-04T12:23:43;103791.75;;;8.53;100.00
51289;BME280;37372;52.294;5.152;2023-02-04T12:26:10;103790.41;;;8.59;100.00
51289;BME280;37372;52.294;5.152;2023-02-04T12:28:36;103791.75;;;8.71;100.00
51289;BME280;37372;52.294;5.152;2023-02-04T12:31:01;103789.28;;;8.60;100.00
51289;BME280;37372;52.294;5.152;2023-02-04T12:33:27;103778.41;;;8.59;100.00
51289;BME280;37372;52.294;5.152;2023-02-04T12:35:52;103792.06;;;8.69;100.00
51289;BME280;37372;52.294;5.152;2023-02-04T12:38:19;103790.72;;;8.84;100.00
51289;BME280;37372;52.294;5.152;2023-02-04T12:40:44;103786.13;;;8.79;100.00
51289;BME280;37372;52.294;5.152;2023-02-04T12:43:10;103783.63;;;8.86;100.00
51289;BME280;37372;52.294;5.152;2023-02-04T12:45:35;103792.69;;;8.92;100.00
51289;BME280;37372;52.294;5.152;2023-02-04T12:48:01;103789.34;;;9.07;100.00
51289;BME280;37372;52.294;5.152;2023-02-04T12:50:27;103795.94;;;9.11;100.00
51289;BME280;37372;52.294;5.152;2023-02-04T12:52:57;103791.94;;;9.30;100.00
51289;BME280;37372;52.294;5.152;2023-02-04T12:55:24;103786.78;;;9.41;100.00
51289;BME280;37372;52.294;5.152;2023-02-04T12:57:51;103792.53;;;9.44;99.49
51289;BME280;37372;52.294;5.152;2023-02-04T13:00:18;103799.78;;;9.45;95.98
51289;BME280;37372;52.294;5.152;2023-02-04T13:02:44;103789.19;;;9.60;96.04
51289;BME280;37372;52.294;5.152;2023-02-04T13:05:10;103784.69;;;9.29;98.38
51289;BME280;37372;52.294;5.152;2023-02-04T13:07:35;103773.84;;;9.19;100.00